Time;durP1;ratioP1;P1;durP2;ratioP2;P2;SDS_P1;SDS_P2;PMS_P1;PMS_P2;Temp;Humidity;BMP_temperature;BMP_pressure;BME280_temperature;BME280_humidity;BME280_pressure;Samples;Min_cycle;Max_cycle;Signal;HPM_P1;HPM_P2
2022/09/21 00:02:12;;;;;;;5.15;2.33;;;;;;;;;;4973377;28;20413;-65
2022/09/21 00:04:37;;;;;;;5.07;2.38;;;;;;;;;;4960485;28;20035;-63
2022/09/21 00:07:03;;;;;;;3.83;2.42;;;;;;;;;;4979699;28;20026;-63
2022/09/21 00:09:28;;;;;;;5.18;2.35;;;;;;;;;;4978351;28;20046;-64
2022/09/21 00:11:53;;;;;;;5.78;2.63;;;;;;;;;;4979706;28;20149;-61
2022/09/21 00:14:19;;;;;;;4.50;2.50;;;;;;;;;;4983976;28;20050;-63
2022/09/21 00:16:44;;;;;;;4.95;2.80;;;;;;;;;;4983174;28;20042;-63
2022/09/21 00:19:10;;;;;;;5.32;2.33;;;;;;;;;;4984268;28;20030;-63
2022/09/21 00:21:37;;;;;;;4.93;2.50;;;;;;;;;;4983841;28;20417;-63
2022/09/21 00:24:03;;;;;;;7.07;2.65;;;;;;;;;;4980541;28;20038;-63
2022/09/21 00:26:29;;;;;;;5.35;2.47;;;;;;;;;;4974888;28;20358;-62
2022/09/21 00:28:58;;;;;;;7.78;2.38;;;;;;;;;;4978042;28;20050;-62
2022/09/21 00:31:24;;;;;;;4.97;2.25;;;;;;;;;;4975618;28;20045;-64
2022/09/21 00:33:52;;;;;;;5.68;2.60;;;;;;;;;;4977184;28;20065;-64
2022/09/21 00:36:20;;;;;;;5.00;2.50;;;;;;;;;;4978772;28;20054;-62
2022/09/21 00:38:51;;;;;;;5.82;2.25;;;;;;;;;;4976651;28;20137;-64
2022/09/21 00:41:17;;;;;;;5.05;2.00;;;;;;;;;;4982692;28;20073;-62
2022/09/21 00:43:47;;;;;;;6.07;2.45;;;;;;;;;;4977496;28;20422;-62
2022/09/21 00:46:26;;;;;;;8.45;2.08;;;;;;;;;;4979456;28;20433;-63
2022/09/21 00:48:52;;;;;;;4.93;2.03;;;;;;;;;;4979958;28;20078;-62
2022/09/21 00:51:17;;;;;;;4.72;2.08;;;;;;;;;;4981163;28;20066;-63
2022/09/21 00:53:43;;;;;;;10.85;2.13;;;;;;;;;;4978341;28;20046;-63
2022/09/21 00:56:10;;;;;;;4.68;2.13;;;;;;;;;;4981614;28;20094;-57
2022/09/21 00:58:43;;;;;;;4.15;1.92;;;;;;;;;;4977947;28;20045;-58
2022/09/21 01:01:11;;;;;;;8.05;2.30;;;;;;;;;;4979215;28;20153;-58
2022/09/21 01:03:38;;;;;;;8.38;2.13;;;;;;;;;;4977707;28;20058;-55
2022/09/21 01:06:03;;;;;;;5.47;2.20;;;;;;;;;;4980631;28;20054;-59
2022/09/21 01:08:29;;;;;;;7.40;2.03;;;;;;;;;;4978042;28;20065;-55
2022/09/21 01:11:13;;;;;;;3.75;1.92;;;;;;;;;;4976458;28;20070;-56
2022/09/21 01:14:01;;;;;;;7.07;2.38;;;;;;;;;;4975950;28;20046;-55
2022/09/21 01:16:37;;;;;;;3.33;2.05;;;;;;;;;;4979491;28;20041;-56
2022/09/21 01:19:25;;;;;;;3.45;1.65;;;;;;;;;;4996566;28;20055;-59
2022/09/21 01:22:30;;;;;;;5.07;1.60;;;;;;;;;;4976811;28;20050;-58
2022/09/21 01:25:26;;;;;;;5.60;2.00;;;;;;;;;;4977897;28;20086;-57
2022/09/21 01:28:05;;;;;;;4.60;1.70;;;;;;;;;;4977585;28;20054;-55
2022/09/21 01:30:34;;;;;;;5.70;1.80;;;;;;;;;;4979763;28;20054;-62
2022/09/21 01:33:09;;;;;;;3.38;2.05;;;;;;;;;;4976764;28;20105;-58
2022/09/21 01:35:42;;;;;;;3.33;1.85;;;;;;;;;;4970333;28;20046;-56
2022/09/21 01:38:13;;;;;;;2.35;1.77;;;;;;;;;;4959859;28;20054;-58
2022/09/21 01:40:42;;;;;;;3.85;1.92;;;;;;;;;;4956206;28;20039;-57
2022/09/21 01:43:13;;;;;;;4.00;1.60;;;;;;;;;;4960017;28;20034;-61
2022/09/21 01:45:44;;;;;;;3.50;1.60;;;;;;;;;;4978585;28;20100;-57
2022/09/21 01:48:13;;;;;;;6.35;1.90;;;;;;;;;;4981026;28;20055;-58
2022/09/21 01:50:45;;;;;;;7.13;2.92;;;;;;;;;;4980462;28;20055;-57
2022/09/21 01:53:25;;;;;;;7.07;2.38;;;;;;;;;;4982379;28;20062;-56
2022/09/21 01:55:58;;;;;;;7.32;2.10;;;;;;;;;;4980373;28;20038;-57
2022/09/21 01:58:35;;;;;;;;;;;;;;;;;;4984795;28;20062;-53
2022/09/21 02:01:01;;;;;;;4.88;1.60;;;;;;;;;;4981795;28;19940;-58
2022/09/21 02:03:50;;;;;;;4.78;1.50;;;;;;;;;;4983337;28;20508;-54
2022/09/21 02:06:17;;;;;;;7.70;1.67;;;;;;;;;;4982460;28;20593;-60
2022/09/21 02:08:43;;;;;;;4.55;1.70;;;;;;;;;;4978245;28;20149;-57
2022/09/21 02:11:11;;;;;;;3.67;1.67;;;;;;;;;;4980661;28;20042;-59
2022/09/21 02:13:40;;;;;;;5.15;1.60;;;;;;;;;;4980870;28;20041;-58
2022/09/21 02:16:05;;;;;;;7.85;2.00;;;;;;;;;;4983693;28;20483;-59
2022/09/21 02:18:33;;;;;;;2.78;1.55;;;;;;;;;;4981729;28;20053;-55
2022/09/21 02:21:02;;;;;;;3.25;1.48;;;;;;;;;;4976895;28;20132;-57
2022/09/21 02:23:56;;;;;;;2.75;1.63;;;;;;;;;;4982388;28;20128;-55
2022/09/21 02:26:25;;;;;;;;;;;;;;;;;;4979767;28;20053;-55
2022/09/21 02:29:11;;;;;;;9.65;1.95;;;;;;;;;;4977009;28;19929;-57
2022/09/21 02:31:48;;;;;;;3.80;1.60;;;;;;;;;;4978695;28;20417;-55
2022/09/21 02:34:39;;;;;;;5.45;1.77;;;;;;;;;;4979908;28;20489;-55
2022/09/21 02:37:15;;;;;;;4.78;1.70;;;;;;;;;;4984196;28;20564;-54
2022/09/21 02:40:06;;;;;;;4.82;1.98;;;;;;;;;;4981768;28;20108;-56
2022/09/21 02:42:36;;;;;;;3.63;1.52;;;;;;;;;;4978324;28;20061;-56
2022/09/21 02:45:21;;;;;;;5.85;1.70;;;;;;;;;;4983359;28;20497;-56
2022/09/21 02:48:20;;;;;;;3.33;1.40;;;;;;;;;;4980271;28;20077;-57
2022/09/21 02:50:58;;;;;;;4.65;1.50;;;;;;;;;;4979513;28;20042;-55
2022/09/21 02:53:27;;;;;;;3.08;1.70;;;;;;;;;;4980555;28;20137;-57
2022/09/21 02:55:56;;;;;;;5.40;1.70;;;;;;;;;;4980176;28;20520;-55
2022/09/21 02:58:25;;;;;;;5.35;1.85;;;;;;;;;;4979593;28;20034;-59
2022/09/21 03:00:50;;;;;;;3.05;1.65;;;;;;;;;;4979498;28;20038;-59
2022/09/21 03:03:22;;;;;;;4.15;1.80;;;;;;;;;;4979775;28;20049;-58
2022/09/21 03:05:50;;;;;;;3.70;1.80;;;;;;;;;;4976226;28;20141;-58
2022/09/21 03:08:16;;;;;;;4.28;2.13;;;;;;;;;;4977660;28;20071;-56
2022/09/21 03:10:42;;;;;;;2.40;1.63;;;;;;;;;;4976387;28;20031;-56
2022/09/21 03:13:08;;;;;;;4.60;1.75;;;;;;;;;;4979288;28;20034;-58
2022/09/21 03:15:35;;;;;;;3.40;1.50;;;;;;;;;;4979188;28;20046;-59
2022/09/21 03:18:02;;;;;;;2.97;1.52;;;;;;;;;;4979604;28;20061;-58
2022/09/21 03:20:27;;;;;;;3.33;1.58;;;;;;;;;;4975381;28;20051;-60
2022/09/21 03:22:52;;;;;;;5.00;1.65;;;;;;;;;;4978919;28;20047;-59
2022/09/21 03:25:18;;;;;;;3.40;1.65;;;;;;;;;;4975975;28;20041;-58
2022/09/21 03:27:43;;;;;;;3.90;1.40;;;;;;;;;;4976477;28;20062;-57
2022/09/21 03:30:09;;;;;;;5.18;1.42;;;;;;;;;;4976896;28;20053;-58
2022/09/21 03:32:35;;;;;;;3.33;1.42;;;;;;;;;;4980172;28;20133;-58
2022/09/21 03:35:00;;;;;;;4.70;1.60;;;;;;;;;;4975454;28;20050;-57
2022/09/21 03:37:25;;;;;;;3.08;1.40;;;;;;;;;;4979393;28;20037;-59
2022/09/21 03:39:51;;;;;;;3.30;1.50;;;;;;;;;;4977167;28;20047;-59
2022/09/21 03:42:16;;;;;;;3.72;1.80;;;;;;;;;;4980043;28;20061;-59
2022/09/21 03:44:42;;;;;;;4.20;1.40;;;;;;;;;;4978155;28;20043;-56
2022/09/21 03:47:07;;;;;;;3.70;1.58;;;;;;;;;;4975083;28;20046;-58
2022/09/21 03:49:33;;;;;;;2.53;2.10;;;;;;;;;;4980606;28;20034;-57
2022/09/21 03:51:59;;;;;;;3.15;1.42;;;;;;;;;;4977354;28;20069;-59
2022/09/21 03:54:25;;;;;;;7.07;1.75;;;;;;;;;;4978764;28;20145;-58
2022/09/21 03:56:50;;;;;;;3.78;1.55;;;;;;;;;;4974187;28;20058;-56
2022/09/21 03:59:16;;;;;;;5.60;1.50;;;;;;;;;;4993110;28;22039;-56
2022/09/21 04:01:42;;;;;;;4.70;1.60;;;;;;;;;;4977119;28;20041;-57
2022/09/21 04:04:09;;;;;;;6.88;1.70;;;;;;;;;;4975793;28;20036;-59
2022/09/21 04:06:34;;;;;;;2.42;1.25;;;;;;;;;;4976386;28;20452;-56
2022/09/21 04:09:01;;;;;;;3.53;1.33;;;;;;;;;;4974527;28;20054;-58
2022/09/21 04:11:28;;;;;;;4.15;1.52;;;;;;;;;;4975275;28;20040;-60
2022/09/21 04:13:56;;;;;;;4.22;1.40;;;;;;;;;;4971757;28;20050;-58
2022/09/21 04:16:23;;;;;;;2.88;1.48;;;;;;;;;;4978274;28;20038;-57
2022/09/21 04:18:49;;;;;;;5.43;1.98;;;;;;;;;;4978536;28;20502;-57
2022/09/21 04:21:16;;;;;;;7.13;2.67;;;;;;;;;;4978435;28;20058;-57
2022/09/21 04:23:42;;;;;;;5.05;2.58;;;;;;;;;;4977692;28;20052;-58
2022/09/21 04:26:18;;;;;;;5.57;2.50;;;;;;;;;;4976025;28;20065;-56
2022/09/21 04:28:44;;;;;;;5.22;2.20;;;;;;;;;;4978842;28;20043;-55
2022/09/21 04:31:09;;;;;;;7.90;2.67;;;;;;;;;;4977104;28;20041;-56
2022/09/21 04:33:35;;;;;;;5.35;2.50;;;;;;;;;;4980208;28;20046;-54
2022/09/21 04:36:00;;;;;;;4.45;2.00;;;;;;;;;;4977948;28;20038;-55
2022/09/21 04:38:26;;;;;;;5.45;1.80;;;;;;;;;;4978467;28;20062;-57
2022/09/21 04:40:57;;;;;;;2.33;1.40;;;;;;;;;;4974399;28;20054;-58
2022/09/21 04:43:23;;;;;;;3.55;1.60;;;;;;;;;;4980214;28;20026;-59
2022/09/21 04:45:48;;;;;;;3.25;1.63;;;;;;;;;;4975589;28;20046;-54
2022/09/21 04:48:14;;;;;;;5.47;1.77;;;;;;;;;;4977545;28;20050;-57
2022/09/21 04:50:39;;;;;;;5.65;1.45;;;;;;;;;;4972096;28;20141;-57
2022/09/21 04:53:05;;;;;;;9.85;1.70;;;;;;;;;;4980621;28;20066;-56
2022/09/21 04:55:31;;;;;;;2.70;1.50;;;;;;;;;;4977016;28;20406;-56
2022/09/21 04:57:56;;;;;;;3.33;1.80;;;;;;;;;;4978229;28;20065;-57
2022/09/21 05:00:21;;;;;;;4.75;1.70;;;;;;;;;;4977794;28;20433;-58
2022/09/21 05:02:47;;;;;;;3.55;1.40;;;;;;;;;;4979236;28;20054;-57
2022/09/21 05:05:12;;;;;;;3.88;1.50;;;;;;;;;;4977909;28;20098;-56
2022/09/21 05:07:38;;;;;;;3.22;1.75;;;;;;;;;;4978216;28;20042;-56
2022/09/21 05:10:04;;;;;;;6.00;2.15;;;;;;;;;;4980677;28;20065;-58
2022/09/21 05:12:31;;;;;;;9.95;2.00;;;;;;;;;;4969464;28;20050;-59
2022/09/21 05:14:57;;;;;;;4.10;1.75;;;;;;;;;;4974270;28;20046;-61
2022/09/21 05:17:22;;;;;;;6.32;1.90;;;;;;;;;;4980936;28;20105;-60
2022/09/21 05:19:49;;;;;;;3.90;2.00;;;;;;;;;;4978512;28;20050;-60
2022/09/21 05:22:14;;;;;;;6.35;1.98;;;;;;;;;;4977292;28;20038;-60
2022/09/21 05:24:39;;;;;;;6.95;2.08;;;;;;;;;;4978227;28;20065;-59
2022/09/21 05:27:05;;;;;;;4.30;1.88;;;;;;;;;;4977381;28;20061;-59
2022/09/21 05:29:30;;;;;;;3.85;1.90;;;;;;;;;;4980073;28;20141;-59
2022/09/21 05:32:02;;;;;;;6.78;1.95;;;;;;;;;;4977996;28;20137;-58
2022/09/21 05:34:39;;;;;;;5.38;2.17;;;;;;;;;;4979487;28;20041;-57
2022/09/21 05:37:36;;;;;;;6.25;2.05;;;;;;;;;;4979177;28;20394;-60
2022/09/21 05:40:03;;;;;;;3.53;2.08;;;;;;;;;;4974360;28;20058;-58
2022/09/21 05:42:28;;;;;;;6.07;1.92;;;;;;;;;;4983562;28;20100;-61
2022/09/21 05:44:54;;;;;;;6.55;2.00;;;;;;;;;;4972347;28;20417;-61
2022/09/21 05:47:35;;;;;;;4.35;2.00;;;;;;;;;;4974426;28;20160;-60
2022/09/21 05:50:28;;;;;;;4.55;2.10;;;;;;;;;;4978458;28;20042;-61
2022/09/21 05:53:39;;;;;;;4.93;2.35;;;;;;;;;;4980599;28;20051;-57
2022/09/21 05:56:27;;;;;;;10.65;3.05;;;;;;;;;;4977444;28;20063;-61
2022/09/21 05:59:20;;;;;;;7.80;3.45;;;;;;;;;;4976111;28;20058;-60
2022/09/21 06:02:04;;;;;;;10.75;3.55;;;;;;;;;;4975927;28;20038;-59
2022/09/21 06:04:30;;;;;;;36.80;4.95;;;;;;;;;;4975816;28;20023;-60
2022/09/21 06:06:55;;;;;;;19.63;5.20;;;;;;;;;;4975954;28;20521;-60
2022/09/21 06:09:21;;;;;;;8.35;4.70;;;;;;;;;;4982253;28;20042;-59
2022/09/21 06:11:47;;;;;;;24.38;5.80;;;;;;;;;;4978044;28;20050;-59
2022/09/21 06:14:12;;;;;;;19.25;7.32;;;;;;;;;;4977311;28;20053;-56
2022/09/21 06:16:40;;;;;;;23.45;7.13;;;;;;;;;;4972442;28;20038;-59
2022/09/21 06:19:05;;;;;;;37.20;6.53;;;;;;;;;;4973764;28;20132;-59
2022/09/21 06:21:31;;;;;;;28.25;6.85;;;;;;;;;;4979191;28;20056;-58
2022/09/21 06:23:57;;;;;;;15.48;7.40;;;;;;;;;;4976236;28;20046;-61
2022/09/21 06:26:22;;;;;;;46.08;4.82;;;;;;;;;;4978945;28;20046;-55
2022/09/21 06:28:47;;;;;;;46.95;5.05;;;;;;;;;;4976430;28;20058;-57
2022/09/21 06:31:13;;;;;;;21.00;4.75;;;;;;;;;;4978070;28;20045;-58
2022/09/21 06:33:38;;;;;;;16.13;5.32;;;;;;;;;;4978838;28;20198;-57
2022/09/21 06:36:04;;;;;;;9.82;4.60;;;;;;;;;;4970633;28;20415;-58
2022/09/21 06:38:29;;;;;;;7.25;4.22;;;;;;;;;;4971724;28;20048;-55
2022/09/21 06:41:00;;;;;;;46.90;4.82;;;;;;;;;;4981078;28;20066;-56
2022/09/21 06:43:26;;;;;;;8.02;3.90;;;;;;;;;;4978638;28;20724;-56
2022/09/21 06:45:53;;;;;;;16.58;4.47;;;;;;;;;;4981061;28;20062;-56
2022/09/21 06:48:18;;;;;;;17.65;4.47;;;;;;;;;;4998060;28;20050;-56
2022/09/21 06:50:44;;;;;;;12.13;4.50;;;;;;;;;;4980126;28;20413;-56
2022/09/21 06:53:09;;;;;;;13.23;4.95;;;;;;;;;;4976595;28;20069;-55
2022/09/21 06:55:34;;;;;;;12.85;4.82;;;;;;;;;;4978975;28;20117;-55
2022/09/21 06:58:01;;;;;;;44.97;5.07;;;;;;;;;;4977452;28;20351;-56
2022/09/21 07:00:27;;;;;;;42.80;5.88;;;;;;;;;;4981956;28;20129;-54
2022/09/21 07:02:53;;;;;;;9.13;4.93;;;;;;;;;;4980345;28;20054;-58
2022/09/21 07:05:18;;;;;;;7.22;4.60;;;;;;;;;;4980201;28;20046;-57
2022/09/21 07:07:44;;;;;;;10.90;5.00;;;;;;;;;;4978420;28;20045;-58
2022/09/21 07:10:10;;;;;;;10.05;4.60;;;;;;;;;;4982198;28;20118;-62
2022/09/21 07:12:35;;;;;;;8.52;5.25;;;;;;;;;;4979061;28;20516;-59
2022/09/21 07:15:02;;;;;;;9.90;5.38;;;;;;;;;;4979370;28;20057;-53
2022/09/21 07:17:36;;;;;;;10.13;5.20;;;;;;;;;;4980484;28;20049;-58
2022/09/21 07:20:02;;;;;;;7.07;4.75;;;;;;;;;;4977708;28;20416;-54
2022/09/21 07:22:29;;;;;;;42.75;7.18;;;;;;;;;;4979397;28;20038;-54
2022/09/21 07:24:54;;;;;;;12.75;5.45;;;;;;;;;;4977123;28;20034;-55
2022/09/21 07:27:20;;;;;;;14.90;6.05;;;;;;;;;;4981971;28;20050;-54
2022/09/21 07:29:45;;;;;;;40.08;6.00;;;;;;;;;;4974494;28;20078;-58
2022/09/21 07:32:12;;;;;;;28.23;5.78;;;;;;;;;;4979718;28;20046;-55
2022/09/21 07:34:37;;;;;;;14.25;5.40;;;;;;;;;;4973657;28;20096;-58
2022/09/21 07:37:03;;;;;;;52.03;5.75;;;;;;;;;;4981959;28;20884;-57
2022/09/21 07:39:29;;;;;;;38.72;5.97;;;;;;;;;;4977592;28;20046;-55
2022/09/21 07:41:54;;;;;;;15.30;5.95;;;;;;;;;;4975477;28;20054;-55
2022/09/21 07:44:21;;;;;;;27.30;6.32;;;;;;;;;;4975959;28;20054;-56
2022/09/21 07:46:50;;;;;;;8.50;5.80;;;;;;;;;;4976975;28;20022;-56
2022/09/21 07:49:15;;;;;;;12.63;5.57;;;;;;;;;;4978464;28;20030;-57
2022/09/21 07:51:41;;;;;;;10.85;5.60;;;;;;;;;;4982302;28;20548;-57
2022/09/21 07:54:09;;;;;;;10.73;5.40;;;;;;;;;;4976436;28;20054;-57
2022/09/21 07:56:36;;;;;;;10.02;5.82;;;;;;;;;;4977585;28;20128;-51
2022/09/21 07:59:05;;;;;;;8.32;5.32;;;;;;;;;;4972007;28;20072;-55
2022/09/21 08:01:35;;;;;;;10.63;5.40;;;;;;;;;;4978080;28;20073;-56
2022/09/21 08:04:01;;;;;;;8.07;5.10;;;;;;;;;;4977510;28;20173;-57
2022/09/21 08:06:29;;;;;;;8.93;5.40;;;;;;;;;;4978656;28;20544;-57
2022/09/21 08:08:54;;;;;;;8.05;4.88;;;;;;;;;;4978926;28;20042;-58
2022/09/21 08:11:21;;;;;;;8.55;4.82;;;;;;;;;;4980071;28;20096;-55
2022/09/21 08:13:48;;;;;;;7.78;5.47;;;;;;;;;;4979209;28;20069;-53
2022/09/21 08:16:13;;;;;;;9.38;5.53;;;;;;;;;;4979132;28;20081;-58
2022/09/21 08:18:40;;;;;;;8.13;5.63;;;;;;;;;;4977057;28;20058;-58
2022/09/21 08:21:07;;;;;;;13.95;6.00;;;;;;;;;;4979001;28;20430;-57
2022/09/21 08:23:33;;;;;;;7.50;5.60;;;;;;;;;;4980290;28;20046;-57
2022/09/21 08:26:05;;;;;;;8.50;6.00;;;;;;;;;;4979279;28;20061;-56
2022/09/21 08:28:31;;;;;;;8.73;5.95;;;;;;;;;;4974248;28;20532;-52
2022/09/21 08:31:00;;;;;;;11.77;6.25;;;;;;;;;;4980111;28;20041;-56
2022/09/21 08:33:29;;;;;;;10.30;6.43;;;;;;;;;;4977797;28;20077;-54
2022/09/21 08:35:57;;;;;;;12.48;6.30;;;;;;;;;;4979539;28;20057;-56
2022/09/21 08:38:24;;;;;;;10.32;6.50;;;;;;;;;;4971484;28;20050;-55
2022/09/21 08:40:51;;;;;;;9.60;5.88;;;;;;;;;;4975816;28;20054;-52
2022/09/21 08:43:27;;;;;;;10.07;5.88;;;;;;;;;;4978446;28;20030;-55
2022/09/21 08:45:54;;;;;;;10.48;5.82;;;;;;;;;;4980816;28;20049;-58
2022/09/21 08:48:23;;;;;;;9.90;6.10;;;;;;;;;;4975689;28;20058;-53
2022/09/21 08:50:52;;;;;;;9.32;6.25;;;;;;;;;;4977552;28;20054;-58
2022/09/21 08:53:33;;;;;;;11.93;6.35;;;;;;;;;;4977527;28;20046;-59
2022/09/21 08:55:59;;;;;;;10.57;6.00;;;;;;;;;;4976619;28;20153;-59
2022/09/21 08:58:26;;;;;;;9.35;6.05;;;;;;;;;;4976350;28;20042;-59
2022/09/21 09:01:13;;;;;;;9.45;6.50;;;;;;;;;;4981452;28;20427;-57
2022/09/21 09:04:01;;;;;;;9.13;5.65;;;;;;;;;;4980718;28;20097;-56
2022/09/21 09:06:51;;;;;;;9.18;5.60;;;;;;;;;;4982710;28;20058;-56
2022/09/21 09:09:41;;;;;;;10.73;6.05;;;;;;;;;;4981514;28;20046;-60
2022/09/21 09:12:36;;;;;;;8.80;5.05;;;;;;;;;;4981990;28;20050;-59
2022/09/21 09:15:40;;;;;;;7.78;5.00;;;;;;;;;;4966754;28;20042;-58
2022/09/21 09:18:27;;;;;;;12.95;5.50;;;;;;;;;;4981850;28;20046;-54
2022/09/21 09:21:01;;;;;;;10.52;5.15;;;;;;;;;;4980772;28;20085;-54
2022/09/21 09:23:32;;;;;;;13.98;5.45;;;;;;;;;;4983205;28;20046;-55
2022/09/21 09:26:07;;;;;;;12.95;5.30;;;;;;;;;;4983007;28;20048;-59
2022/09/21 09:29:10;;;;;;;13.85;5.28;;;;;;;;;;4981523;28;20061;-52
2022/09/21 09:31:38;;;;;;;11.63;4.03;;;;;;;;;;4983183;28;20450;-56
2022/09/21 09:34:35;;;;;;;10.95;3.92;;;;;;;;;;4983098;28;20656;-55
2022/09/21 09:37:16;;;;;;;9.30;4.00;;;;;;;;;;4979144;28;20054;-58
2022/09/21 09:39:44;;;;;;;9.13;3.30;;;;;;;;;;4977124;28;20054;-53
2022/09/21 09:42:13;;;;;;;4.30;2.15;;;;;;;;;;4984123;28;20050;-58
2022/09/21 09:45:07;;;;;;;7.50;2.45;;;;;;;;;;4981341;28;20046;-55
2022/09/21 09:48:01;;;;;;;8.85;2.03;;;;;;;;;;4981023;28;20062;-57
2022/09/21 09:50:36;;;;;;;9.23;2.15;;;;;;;;;;4976875;28;20050;-57
2022/09/21 09:53:15;;;;;;;3.60;1.80;;;;;;;;;;4980883;28;20108;-58
2022/09/21 09:55:44;;;;;;;4.47;1.85;;;;;;;;;;4978924;28;20038;-57
2022/09/21 09:58:29;;;;;;;4.00;1.75;;;;;;;;;;4979105;28;20038;-63
2022/09/21 10:00:55;;;;;;;7.32;1.65;;;;;;;;;;4979748;28;20628;-60
2022/09/21 10:03:23;;;;;;;3.85;1.60;;;;;;;;;;4980156;28;20038;-55
2022/09/21 10:05:49;;;;;;;2.58;1.50;;;;;;;;;;4976274;28;20042;-55
2022/09/21 10:08:43;;;;;;;4.07;1.60;;;;;;;;;;4980882;28;20263;-50
2022/09/21 10:11:14;;;;;;;4.80;1.70;;;;;;;;;;4976429;28;20069;-59
2022/09/21 10:13:46;;;;;;;6.03;1.83;;;;;;;;;;4977053;28;20042;-59
2022/09/21 10:16:20;;;;;;;7.35;1.58;;;;;;;;;;4982793;28;20045;-53
2022/09/21 10:18:50;;;;;;;3.42;1.40;;;;;;;;;;4979729;28;20050;-55
2022/09/21 10:21:24;;;;;;;5.03;1.48;;;;;;;;;;4979862;28;20104;-57
2022/09/21 10:24:03;;;;;;;4.70;1.40;;;;;;;;;;4993322;28;20050;-53
2022/09/21 10:26:39;;;;;;;4.18;1.40;;;;;;;;;;4978931;28;20054;-56
2022/09/21 10:29:21;;;;;;;4.32;1.33;;;;;;;;;;4970545;28;20121;-56
2022/09/21 10:31:55;;;;;;;2.65;1.20;;;;;;;;;;4979984;28;20092;-58
2022/09/21 10:34:20;;;;;;;4.68;1.30;;;;;;;;;;4976937;28;20172;-58
2022/09/21 10:36:51;;;;;;;4.68;1.30;;;;;;;;;;4976716;28;20478;-56
2022/09/21 10:39:19;;;;;;;5.07;1.50;;;;;;;;;;4978590;28;20503;-55
2022/09/21 10:41:50;;;;;;;3.28;1.08;;;;;;;;;;4983689;28;20072;-58
2022/09/21 10:44:18;;;;;;;3.78;1.15;;;;;;;;;;4978372;28;20228;-55
2022/09/21 10:46:45;;;;;;;2.45;1.10;;;;;;;;;;4975060;28;20038;-56
2022/09/21 10:49:19;;;;;;;4.82;1.17;;;;;;;;;;4980926;28;20026;-56
2022/09/21 10:51:45;;;;;;;3.80;1.08;;;;;;;;;;4976829;28;20034;-60
2022/09/21 10:54:17;;;;;;;2.92;1.00;;;;;;;;;;4982255;28;20139;-56
2022/09/21 10:56:54;;;;;;;3.63;1.20;;;;;;;;;;4977458;28;20509;-56
2022/09/21 10:59:31;;;;;;;6.07;1.20;;;;;;;;;;4969368;28;20046;-57
2022/09/21 11:01:58;;;;;;;8.15;1.27;;;;;;;;;;4955987;28;20061;-58
2022/09/21 11:04:30;;;;;;;4.03;0.95;;;;;;;;;;4962997;28;20181;-57
2022/09/21 11:07:12;;;;;;;5.18;1.40;;;;;;;;;;4964077;28;20403;-55
2022/09/21 11:09:47;;;;;;;2.60;1.10;;;;;;;;;;4961093;28;20050;-56
2022/09/21 11:12:23;;;;;;;4.93;1.20;;;;;;;;;;4976997;28;20058;-59
2022/09/21 11:15:00;;;;;;;3.17;1.17;;;;;;;;;;4978601;28;20414;-57
2022/09/21 11:17:28;;;;;;;3.42;1.00;;;;;;;;;;4975969;28;20054;-56
2022/09/21 11:20:18;;;;;;;3.45;0.80;;;;;;;;;;4981042;28;22897;-55
2022/09/21 11:22:54;;;;;;;3.42;1.00;;;;;;;;;;4972583;28;20085;-55
2022/09/21 11:25:30;;;;;;;4.93;1.30;;;;;;;;;;4978404;28;20030;-57
2022/09/21 11:28:19;;;;;;;2.58;0.98;;;;;;;;;;4979231;28;20054;-55
2022/09/21 11:31:05;;;;;;;2.80;1.00;;;;;;;;;;4974872;28;20064;-56
2022/09/21 11:33:42;;;;;;;3.25;1.20;;;;;;;;;;4945005;28;20051;-56
2022/09/21 11:36:33;;;;;;;2.78;1.20;;;;;;;;;;4980023;28;20077;-56
2022/09/21 11:39:24;;;;;;;4.93;1.00;;;;;;;;;;4977397;28;20065;-57
2022/09/21 11:42:09;;;;;;;3.47;1.00;;;;;;;;;;4977791;28;20081;-56
2022/09/21 11:44:51;;;;;;;5.05;1.05;;;;;;;;;;4980273;28;20086;-55
2022/09/21 11:47:35;;;;;;;4.63;0.95;;;;;;;;;;4974848;28;20050;-54
2022/09/21 11:50:29;;;;;;;2.92;1.00;;;;;;;;;;4976453;28;20050;-58
2022/09/21 11:53:13;;;;;;;4.95;1.20;;;;;;;;;;4977053;28;20061;-55
2022/09/21 11:56:05;;;;;;;5.47;1.08;;;;;;;;;;4974612;28;20397;-57
2022/09/21 11:58:56;;;;;;;2.25;0.80;;;;;;;;;;4977648;28;20062;-56
2022/09/21 12:01:38;;;;;;;2.38;0.82;;;;;;;;;;4977328;28;20045;-56
2022/09/21 12:04:32;;;;;;;1.50;0.63;;;;;;;;;;4957656;28;20153;-58
2022/09/21 12:07:19;;;;;;;3.00;0.80;;;;;;;;;;4959130;28;20506;-55
2022/09/21 12:10:01;;;;;;;2.70;0.90;;;;;;;;;;4962456;28;20262;-55
2022/09/21 12:12:39;;;;;;;2.60;0.93;;;;;;;;;;4974253;28;20407;-52
2022/09/21 12:15:21;;;;;;;6.78;1.25;;;;;;;;;;4976585;28;20095;-55
2022/09/21 12:18:06;;;;;;;2.05;0.98;;;;;;;;;;4971844;28;20042;-56
2022/09/21 12:20:54;;;;;;;4.40;0.65;;;;;;;;;;4978532;28;20050;-55
2022/09/21 12:23:42;;;;;;;1.27;0.60;;;;;;;;;;4974180;28;20038;-54
2022/09/21 12:26:12;;;;;;;2.33;0.63;;;;;;;;;;4964576;28;20409;-56
2022/09/21 12:28:59;;;;;;;3.55;0.80;;;;;;;;;;4974792;28;20038;-54
2022/09/21 12:31:42;;;;;;;2.05;0.75;;;;;;;;;;4977662;28;20134;-56
2022/09/21 12:34:18;;;;;;;4.32;0.70;;;;;;;;;;4975846;28;20180;-53
2022/09/21 12:37:05;;;;;;;2.08;0.63;;;;;;;;;;4975111;28;20058;-57
2022/09/21 12:40:02;;;;;;;3.13;0.50;;;;;;;;;;4983982;28;20101;-55
2022/09/21 12:42:33;;;;;;;2.25;0.80;;;;;;;;;;4974812;28;20042;-60
2022/09/21 12:45:13;;;;;;;4.68;0.73;;;;;;;;;;4985603;28;20161;-54
2022/09/21 12:47:56;;;;;;;2.25;0.38;;;;;;;;;;4985698;28;20199;-57
2022/09/21 12:50:26;;;;;;;1.35;0.47;;;;;;;;;;4985230;28;20058;-59
2022/09/21 12:52:52;;;;;;;3.85;0.50;;;;;;;;;;4983648;28;20058;-58
2022/09/21 12:55:52;;;;;;;3.47;0.60;;;;;;;;;;4981861;28;20030;-58
2022/09/21 12:58:23;;;;;;;4.70;0.70;;;;;;;;;;4981946;28;20052;-55
2022/09/21 13:01:19;;;;;;;7.22;1.10;;;;;;;;;;4982001;28;20055;-57
2022/09/21 13:04:00;;;;;;;2.40;0.50;;;;;;;;;;4979710;28;20435;-52
2022/09/21 13:07:12;;;;;;;3.22;0.40;;;;;;;;;;4975662;28;20210;-61
2022/09/21 13:09:42;;;;;;;2.75;0.63;;;;;;;;;;4983179;28;20248;-60
2022/09/21 13:12:12;;;;;;;3.78;0.50;;;;;;;;;;4982200;28;20419;-55
2022/09/21 13:14:47;;;;;;;2.47;0.50;;;;;;;;;;4984303;28;20038;-60
2022/09/21 13:17:23;;;;;;;1.77;0.70;;;;;;;;;;4971997;28;20089;-59
2022/09/21 13:20:00;;;;;;;2.85;0.75;;;;;;;;;;4977895;28;20132;-59
2022/09/21 13:22:30;;;;;;;1.55;0.60;;;;;;;;;;4973281;28;20042;-56
2022/09/21 13:25:03;;;;;;;2.88;0.60;;;;;;;;;;4973722;28;20132;-55
2022/09/21 13:27:47;;;;;;;;;;;;;;;;;;4974346;28;20374;-56
2022/09/21 13:30:39;;;;;;;2.40;0.50;;;;;;;;;;4977628;28;19988;-58
2022/09/21 13:33:17;;;;;;;5.03;0.60;;;;;;;;;;4973438;28;20052;-58
2022/09/21 13:36:03;;;;;;;1.58;0.68;;;;;;;;;;4975557;28;20144;-59
2022/09/21 13:38:36;;;;;;;1.48;0.60;;;;;;;;;;4974740;28;20034;-57
2022/09/21 13:41:19;;;;;;;0.60;0.40;;;;;;;;;;4972554;28;20161;-57
2022/09/21 13:43:53;;;;;;;0.88;0.40;;;;;;;;;;4970219;28;20142;-55
2022/09/21 13:46:34;;;;;;;1.63;0.45;;;;;;;;;;4957215;28;20038;-55
2022/09/21 13:49:09;;;;;;;3.83;0.50;;;;;;;;;;4980695;28;20049;-54
2022/09/21 13:51:49;;;;;;;1.20;0.57;;;;;;;;;;4975001;28;20886;-55
2022/09/21 13:54:15;;;;;;;4.20;0.50;;;;;;;;;;4979409;28;20073;-53
2022/09/21 13:56:43;;;;;;;1.88;0.50;;;;;;;;;;4974486;28;20536;-53
2022/09/21 13:59:21;;;;;;;1.02;0.55;;;;;;;;;;4978221;28;20054;-58
2022/09/21 14:01:48;;;;;;;3.78;0.70;;;;;;;;;;4978231;28;20045;-60
2022/09/21 14:04:30;;;;;;;1.13;0.63;;;;;;;;;;4982116;28;20019;-58
2022/09/21 14:07:01;;;;;;;2.13;0.47;;;;;;;;;;4982093;28;20169;-57
2022/09/21 14:09:41;;;;;;;1.90;0.50;;;;;;;;;;4976600;28;20046;-58
2022/09/21 14:12:17;;;;;;;0.90;0.40;;;;;;;;;;4980735;28;21004;-57
2022/09/21 14:14:42;;;;;;;1.02;0.43;;;;;;;;;;4979761;28;20058;-56
2022/09/21 14:17:40;;;;;;;1.65;0.55;;;;;;;;;;4978411;28;20441;-56
2022/09/21 14:20:29;;;;;;;2.25;0.70;;;;;;;;;;4973653;28;20058;-53
2022/09/21 14:23:13;;;;;;;0.70;0.40;;;;;;;;;;4977059;28;20049;-55
2022/09/21 14:25:57;;;;;;;0.95;0.40;;;;;;;;;;4975177;28;20045;-57
2022/09/21 14:28:45;;;;;;;3.10;0.70;;;;;;;;;;4975096;28;20031;-58
2022/09/21 14:31:26;;;;;;;0.95;0.40;;;;;;;;;;4979639;28;20050;-56
2022/09/21 14:33:58;;;;;;;2.97;0.70;;;;;;;;;;4981874;28;20054;-60
2022/09/21 14:36:48;;;;;;;1.93;0.53;;;;;;;;;;4981625;28;20045;-56
2022/09/21 14:39:36;;;;;;;2.28;0.38;;;;;;;;;;4979977;28;20286;-56
2022/09/21 14:42:26;;;;;;;1.20;0.40;;;;;;;;;;4981713;28;20137;-57
2022/09/21 14:44:54;;;;;;;2.13;0.50;;;;;;;;;;4979895;28;20050;-57
2022/09/21 14:48:04;;;;;;;2.10;0.40;;;;;;;;;;4982747;28;20050;-56
2022/09/21 14:50:35;;;;;;;2.35;0.47;;;;;;;;;;4983283;28;20047;-58
2022/09/21 14:53:09;;;;;;;6.50;0.60;;;;;;;;;;4979323;28;20156;-56
2022/09/21 14:55:54;;;;;;;2.90;0.70;;;;;;;;;;4979738;28;20030;-58
2022/09/21 14:58:25;;;;;;;1.38;0.40;;;;;;;;;;4979640;28;20029;-57
2022/09/21 15:00:52;;;;;;;1.23;0.30;;;;;;;;;;4979946;28;20902;-61
2022/09/21 15:03:43;;;;;;;3.22;0.40;;;;;;;;;;4973988;28;20128;-59
2022/09/21 15:12:54;;;;;;;3.00;0.40;;;;;;;;;;4973464;28;20077;-56
2022/09/21 15:15:30;;;;;;;0.68;0.32;;;;;;;;;;4976187;28;20161;-55
2022/09/21 15:17:58;;;;;;;1.27;0.40;;;;;;;;;;4980626;28;20410;-55
2022/09/21 15:20:26;;;;;;;1.42;0.60;;;;;;;;;;4981689;28;20173;-58
2022/09/21 15:22:57;;;;;;;2.50;0.40;;;;;;;;;;4978970;28;20051;-55
2022/09/21 15:25:24;;;;;;;1.85;0.30;;;;;;;;;;4980864;28;20117;-53